Trinity, Florida
Current Conditions -  °F | °C
As of 2:53 AM on Monday 22 Dec 2014 (Local Time) from KBKV Reporting Station
Light Rain Light Rain  
Wind Chill: 64°   Ceiling: 1800
Heat Index: 64°   Visibility: 6mi
Dew Point: 63°   Wind: 8mph
Humidity: 96%   Direction: 90°E
Pressure: 30.01"   Gusts: NA
Location:  28.2318°N, 82.5991°W
Report Text: KBKV 220753Z AUTO 09007KT 6SM -RA BR SCT005 OVC018 18/17 A3001 RMK AO2 RAE22B42 SLP160 P0001 T01780172
Loading
Personal Weather Stations






























Interactive Weather Map New forecast layout! Learn more

10-Day Weather Forecast

Advertisements
Track Severe Weather on mobile